createdAt,value
2023-05-23T00:00:02.023Z,8.00
2023-05-23T00:02:49.818Z,8.17
2023-05-23T00:05:36.867Z,7.93
2023-05-23T00:08:23.629Z,8.23
2023-05-23T00:11:10.711Z,9.47
2023-05-23T00:14:14.693Z,7.30
2023-05-23T00:17:10.816Z,9.17
2023-05-23T00:19:58.108Z,9.30
2023-05-23T00:22:44.853Z,8.63
2023-05-23T00:25:34.959Z,7.97
2023-05-23T00:28:21.972Z,7.20
2023-05-23T00:31:10.496Z,8.27
2023-05-23T00:33:57.605Z,9.13
2023-05-23T00:36:47.749Z,8.50
2023-05-23T00:39:34.931Z,8.40
2023-05-23T00:42:21.656Z,8.63
2023-05-23T00:45:09.875Z,7.90
2023-05-23T00:47:59.349Z,9.83
2023-05-23T00:50:47.002Z,7.57
2023-05-23T00:53:34.947Z,8.93
2023-05-23T00:56:22.480Z,8.40
2023-05-23T00:59:10.018Z,7.63
2023-05-23T01:01:58.604Z,8.73
2023-05-23T01:04:47.245Z,9.03
2023-05-23T01:07:34.142Z,7.83
2023-05-23T01:10:24.237Z,7.90
2023-05-23T01:13:21.126Z,8.33
2023-05-23T01:16:10.819Z,8.87
2023-05-23T01:19:08.832Z,8.03
2023-05-23T01:22:02.353Z,8.17
2023-05-23T01:24:56.030Z,8.40
2023-05-23T01:27:52.509Z,7.37
2023-05-23T01:30:43.083Z,7.17
2023-05-23T01:33:30.781Z,7.87
2023-05-23T01:36:17.940Z,9.23
2023-05-23T01:39:05.201Z,8.53
2023-05-23T01:41:53.403Z,8.87
2023-05-23T01:44:42.766Z,8.73
2023-05-23T01:47:30.188Z,8.60
2023-05-23T01:50:18.020Z,8.40
2023-05-23T01:53:05.662Z,8.60
2023-05-23T01:55:53.392Z,8.33
2023-05-23T01:58:40.651Z,8.23
2023-05-23T02:01:29.677Z,8.53
2023-05-23T02:04:16.964Z,8.23
2023-05-23T02:07:04.123Z,7.90
2023-05-23T02:09:51.287Z,8.57
2023-05-23T02:12:38.165Z,9.57
2023-05-23T02:15:25.327Z,9.43
2023-05-23T02:18:14.248Z,9.20
2023-05-23T02:21:02.506Z,9.83
2023-05-23T02:23:49.517Z,9.67
2023-05-23T02:26:36.380Z,8.83
2023-05-23T02:29:23.237Z,9.60
2023-05-23T02:32:10.015Z,8.93
2023-05-23T02:34:59.708Z,7.97
2023-05-23T02:37:46.813Z,8.73
2023-05-23T02:40:33.581Z,8.50
2023-05-23T02:43:20.617Z,9.17
2023-05-23T02:46:07.822Z,9.30
2023-05-23T02:48:54.829Z,9.00
2023-05-23T02:51:43.253Z,9.23
2023-05-23T02:54:30.145Z,8.37
2023-05-23T02:57:17.348Z,8.97
2023-05-23T03:00:05.081Z,8.73
2023-05-23T03:02:51.959Z,9.17
2023-05-23T03:05:39.140Z,8.43
2023-05-23T03:08:27.796Z,8.77
2023-05-23T03:11:14.500Z,8.57
2023-05-23T03:14:01.493Z,9.50
2023-05-23T03:16:48.507Z,8.80
2023-05-23T03:19:36.747Z,8.23
2023-05-23T03:22:23.921Z,8.60
2023-05-23T03:25:12.304Z,8.93
2023-05-23T03:27:59.248Z,8.00
2023-05-23T03:30:46.303Z,8.33
2023-05-23T03:33:33.158Z,8.57
2023-05-23T03:36:20.353Z,8.77
2023-05-23T03:39:07.537Z,8.87
2023-05-23T03:41:55.929Z,8.93
2023-05-23T03:44:43.241Z,8.63
2023-05-23T03:47:30.112Z,8.30
2023-05-23T03:50:17.264Z,8.77
2023-05-23T03:53:03.984Z,8.70
2023-05-23T03:55:50.829Z,8.87
2023-05-23T03:58:39.108Z,8.30
2023-05-23T04:01:26.156Z,7.83
2023-05-23T04:04:17.326Z,8.50
2023-05-23T04:07:05.724Z,8.17
2023-05-23T04:09:55.276Z,7.97
2023-05-23T04:12:43.009Z,8.60
2023-05-23T04:15:34.362Z,8.67
2023-05-23T04:18:21.014Z,7.47
2023-05-23T04:21:08.203Z,8.53
2023-05-23T04:23:56.216Z,8.27
2023-05-23T04:26:43.155Z,6.77
2023-05-23T04:29:31.852Z,7.13
2023-05-23T04:32:23.249Z,7.60
2023-05-23T04:35:13.550Z,7.90
2023-05-23T04:38:02.060Z,7.23
2023-05-23T04:40:49.484Z,8.60
2023-05-23T04:43:37.423Z,8.37
2023-05-23T04:46:26.469Z,8.77
2023-05-23T04:49:15.096Z,8.17
2023-05-23T04:52:02.105Z,7.83
2023-05-23T04:54:49.721Z,7.87
2023-05-23T04:57:37.282Z,8.47
2023-05-23T05:00:24.300Z,8.30
2023-05-23T05:03:12.193Z,8.07
2023-05-23T05:06:01.934Z,8.77
2023-05-23T05:08:48.984Z,7.90
2023-05-23T05:11:36.148Z,8.67
2023-05-23T05:14:22.978Z,8.27
2023-05-23T05:17:10.192Z,8.10
2023-05-23T05:19:57.774Z,7.47
2023-05-23T05:22:46.131Z,8.27
2023-05-23T05:25:35.999Z,9.27
2023-05-23T05:28:23.018Z,9.50
2023-05-23T05:31:10.269Z,8.83
2023-05-23T05:33:57.744Z,9.17
2023-05-23T05:36:47.961Z,8.90
2023-05-23T05:39:36.290Z,9.43
2023-05-23T05:42:23.550Z,8.70
2023-05-23T05:45:12.144Z,8.83
2023-05-23T05:47:59.808Z,7.85
2023-05-23T05:50:47.222Z,8.10
2023-05-23T05:53:34.405Z,7.65
2023-05-23T05:56:23.256Z,8.68
2023-05-23T05:59:10.226Z,8.90
2023-05-23T06:01:57.330Z,9.02
2023-05-23T06:04:43.938Z,9.48
2023-05-23T06:07:30.674Z,9.35
2023-05-23T06:10:17.578Z,8.00
2023-05-23T06:13:05.665Z,9.73
2023-05-23T06:15:54.920Z,10.15
2023-05-23T06:18:41.747Z,9.20
2023-05-23T06:21:28.783Z,10.02
2023-05-23T06:24:15.856Z,8.45
2023-05-23T06:27:02.547Z,9.55
2023-05-23T06:29:50.816Z,10.27
2023-05-23T06:32:38.227Z,8.85
2023-05-23T06:35:25.542Z,9.25
2023-05-23T06:38:12.274Z,9.48
2023-05-23T06:41:01.939Z,9.82
2023-05-23T06:43:49.055Z,9.02
2023-05-23T06:46:40.265Z,9.98
2023-05-23T06:49:27.799Z,10.40
2023-05-23T06:52:14.955Z,10.77
2023-05-23T06:55:02.231Z,10.13
2023-05-23T06:57:52.299Z,11.35
2023-05-23T07:00:39.821Z,9.95
2023-05-23T07:03:28.434Z,11.23
2023-05-23T07:06:15.773Z,10.75
2023-05-23T07:09:04.136Z,10.32
2023-05-23T07:11:51.600Z,10.93
2023-05-23T07:14:38.705Z,11.38
2023-05-23T07:17:25.872Z,11.02
2023-05-23T07:20:14.648Z,10.93
2023-05-23T07:23:01.339Z,11.93
2023-05-23T07:26:01.161Z,9.75
2023-05-23T07:28:50.394Z,10.63
2023-05-23T07:31:37.375Z,10.13
2023-05-23T07:34:24.374Z,10.38
2023-05-23T07:37:12.881Z,10.05
2023-05-23T07:39:59.611Z,9.55
2023-05-23T07:42:46.504Z,10.73
2023-05-23T07:45:33.801Z,10.43
2023-05-23T07:48:21.008Z,10.40
2023-05-23T07:51:07.894Z,9.88
2023-05-23T07:53:56.099Z,9.55
2023-05-23T07:56:44.406Z,10.10
2023-05-23T07:59:31.570Z,10.20
2023-05-23T08:02:18.542Z,9.15
2023-05-23T08:05:07.151Z,15.63
2023-05-23T08:07:55.180Z,10.48
2023-05-23T08:10:45.680Z,9.82
2023-05-23T08:13:32.633Z,10.75
2023-05-23T08:16:19.520Z,12.07
2023-05-23T08:19:06.556Z,11.02
2023-05-23T08:21:53.716Z,10.40
2023-05-23T08:24:40.727Z,10.55
2023-05-23T08:27:30.379Z,10.20
2023-05-23T08:30:17.644Z,10.40
2023-05-23T08:33:05.235Z,10.02
2023-05-23T08:35:52.305Z,10.23
2023-05-23T08:38:39.375Z,9.35
2023-05-23T08:41:27.174Z,10.00
2023-05-23T08:44:16.111Z,9.57
2023-05-23T08:47:06.553Z,9.25
2023-05-23T08:49:56.534Z,9.93
2023-05-23T08:52:49.294Z,9.07
2023-05-23T08:55:36.820Z,8.90
2023-05-23T08:58:29.150Z,10.30
2023-05-23T09:01:20.356Z,8.23
2023-05-23T09:04:08.145Z,9.32
2023-05-23T09:06:56.658Z,9.43
2023-05-23T09:09:44.586Z,9.05
2023-05-23T09:12:31.543Z,9.30
2023-05-23T09:15:18.698Z,8.82
2023-05-23T09:18:07.256Z,9.68
2023-05-23T09:20:54.588Z,9.73
2023-05-23T09:23:42.546Z,10.68
2023-05-23T09:26:29.809Z,10.18
2023-05-23T09:29:22.786Z,10.75
2023-05-23T09:32:13.594Z,10.30
2023-05-23T09:35:04.201Z,10.98
2023-05-23T09:37:51.016Z,10.45
2023-05-23T09:40:39.301Z,10.20
2023-05-23T09:43:26.341Z,10.27
2023-05-23T09:46:13.065Z,10.30
2023-05-23T09:49:00.317Z,10.52
2023-05-23T09:52:00.000Z,11.27
2023-05-23T09:54:47.523Z,11.15
2023-05-23T09:57:37.782Z,11.55
2023-05-23T10:00:26.220Z,11.93
2023-05-23T10:03:14.868Z,11.88
2023-05-23T10:06:05.808Z,10.98
2023-05-23T10:08:58.683Z,12.07
2023-05-23T10:12:34.412Z,10.40
2023-05-23T10:15:24.054Z,11.48
2023-05-23T10:18:17.905Z,11.80
2023-05-23T10:21:11.254Z,11.40
2023-05-23T10:24:00.944Z,11.93
2023-05-23T10:26:49.353Z,11.90
2023-05-23T10:29:37.248Z,10.70
2023-05-23T10:32:26.379Z,11.13
2023-05-23T10:35:22.269Z,10.43
2023-05-23T10:38:21.805Z,11.13
2023-05-23T10:41:15.037Z,10.77
2023-05-23T10:44:18.126Z,10.38
2023-05-23T10:47:05.983Z,12.43
2023-05-23T10:49:56.870Z,11.77
2023-05-23T10:52:45.176Z,11.18
2023-05-23T10:55:37.361Z,11.63
2023-05-23T10:58:25.532Z,11.40
2023-05-23T11:01:18.106Z,12.02
2023-05-23T11:04:07.529Z,12.55
2023-05-23T11:06:55.935Z,10.40
2023-05-23T11:10:10.086Z,11.05
2023-05-23T11:13:07.844Z,11.30
2023-05-23T11:15:56.348Z,10.00
2023-05-23T11:18:43.158Z,11.48
2023-05-23T11:21:32.224Z,12.73
2023-05-23T11:24:19.365Z,12.05
2023-05-23T11:27:13.123Z,11.93
2023-05-23T11:30:02.339Z,12.45
2023-05-23T11:32:55.942Z,12.23
2023-05-23T11:35:44.167Z,11.63
2023-05-23T11:38:31.645Z,11.55
2023-05-23T11:41:18.627Z,12.38
2023-05-23T11:44:13.358Z,11.65
2023-05-23T11:47:04.547Z,11.57
2023-05-23T11:49:53.120Z,11.73
2023-05-23T11:52:41.304Z,11.70
2023-05-23T11:55:28.365Z,11.65
2023-05-23T11:58:15.216Z,11.68
2023-05-23T12:01:03.375Z,10.90
2023-05-23T12:03:52.706Z,11.35
2023-05-23T12:06:42.542Z,11.50
2023-05-23T12:09:29.183Z,11.48
2023-05-23T12:12:17.197Z,10.52
2023-05-23T12:15:05.138Z,11.00
2023-05-23T12:17:54.657Z,11.00
2023-05-23T12:20:43.168Z,12.05
2023-05-23T12:23:34.541Z,12.88
2023-05-23T12:26:22.307Z,11.60
2023-05-23T12:29:09.158Z,11.20
2023-05-23T12:31:56.498Z,11.15
2023-05-23T12:34:43.782Z,10.00
2023-05-23T12:37:31.240Z,9.63
2023-05-23T12:40:20.593Z,11.52
2023-05-23T12:43:11.148Z,10.35
2023-05-23T12:45:58.142Z,11.00
2023-05-23T12:48:45.068Z,9.88
2023-05-23T12:51:32.431Z,9.82
2023-05-23T12:54:19.692Z,9.23
2023-05-23T12:57:07.909Z,9.57
2023-05-23T12:59:54.808Z,8.75
2023-05-23T13:02:41.910Z,9.45
2023-05-23T13:05:28.825Z,10.27
2023-05-23T13:08:16.781Z,9.32
2023-05-23T13:11:04.139Z,9.60
2023-05-23T13:13:52.848Z,9.50
2023-05-23T13:16:39.677Z,9.57
2023-05-23T13:19:27.092Z,9.18
2023-05-23T13:22:14.475Z,8.98
2023-05-23T13:25:01.504Z,8.52
2023-05-23T13:27:49.333Z,9.40
2023-05-23T13:30:37.829Z,9.70
2023-05-23T13:33:25.078Z,8.20
2023-05-23T13:36:11.994Z,8.75
2023-05-23T13:38:59.168Z,9.57
2023-05-23T13:41:46.083Z,9.20
2023-05-23T13:44:33.148Z,8.30
2023-05-23T13:47:21.299Z,8.30
2023-05-23T13:50:09.619Z,8.80
2023-05-23T13:52:59.556Z,9.18
2023-05-23T13:55:46.682Z,8.13
2023-05-23T13:58:33.850Z,8.65
2023-05-23T14:01:20.672Z,8.98
2023-05-23T14:04:08.681Z,9.00
2023-05-23T14:06:55.442Z,8.25
2023-05-23T14:09:42.447Z,8.13
2023-05-23T14:12:29.731Z,8.70
2023-05-23T14:15:18.359Z,8.52
2023-05-23T14:18:05.971Z,8.90
2023-05-23T14:20:54.507Z,7.95
2023-05-23T14:23:41.741Z,8.02
2023-05-23T14:26:28.636Z,7.80
2023-05-23T14:29:15.522Z,8.15
2023-05-23T14:32:04.103Z,8.25
2023-05-23T14:34:51.215Z,8.95
2023-05-23T14:37:39.545Z,7.90
2023-05-23T14:40:26.772Z,8.35
2023-05-23T14:43:14.123Z,8.65
2023-05-23T14:46:01.363Z,7.72
2023-05-23T14:48:48.335Z,8.00
2023-05-23T14:51:47.549Z,8.27
2023-05-23T14:54:41.011Z,7.95
2023-05-23T14:57:30.909Z,7.72
2023-05-23T15:00:18.602Z,7.75
2023-05-23T15:03:07.777Z,7.65
2023-05-23T15:05:54.769Z,7.13
2023-05-23T15:08:42.421Z,7.78
2023-05-23T15:11:32.089Z,7.57
2023-05-23T15:14:18.985Z,7.32
2023-05-23T15:17:08.643Z,7.38
2023-05-23T15:19:57.226Z,6.63
2023-05-23T15:22:44.500Z,8.25
2023-05-23T15:25:47.895Z,7.00
2023-05-23T15:28:37.314Z,7.05
2023-05-23T15:31:24.178Z,5.93
2023-05-23T15:34:11.766Z,6.15
2023-05-23T15:36:59.110Z,6.13
2023-05-23T15:39:47.144Z,6.97
2023-05-23T15:42:34.215Z,6.88
2023-05-23T15:45:22.596Z,5.30
2023-05-23T15:48:09.669Z,6.72
2023-05-23T15:50:56.554Z,6.28
2023-05-23T15:53:59.777Z,6.15
2023-05-23T15:56:48.203Z,6.47
2023-05-23T15:59:34.941Z,6.28
2023-05-23T16:02:23.377Z,5.47
2023-05-23T16:05:12.871Z,6.00
2023-05-23T16:07:59.994Z,6.30
2023-05-23T16:10:47.107Z,6.13
2023-05-23T16:13:34.507Z,5.25
2023-05-23T16:16:22.093Z,6.15
2023-05-23T16:19:11.529Z,5.93
2023-05-23T16:21:58.842Z,5.40
2023-05-23T16:24:45.834Z,5.60
2023-05-23T16:27:32.870Z,6.60
2023-05-23T16:30:20.331Z,5.80
2023-05-23T16:33:48.203Z,4.85
2023-05-23T16:36:56.221Z,5.40
2023-05-23T16:39:50.523Z,6.35
2023-05-23T16:42:38.901Z,4.93
2023-05-23T16:45:26.113Z,5.47
2023-05-23T16:48:13.871Z,5.28
2023-05-23T16:51:01.205Z,5.78
2023-05-23T16:53:49.779Z,5.07
2023-05-23T16:56:39.078Z,5.05
2023-05-23T16:59:26.550Z,5.00
2023-05-23T17:02:16.268Z,4.80
2023-05-23T17:05:03.981Z,5.15
2023-05-23T17:07:51.516Z,5.10
2023-05-23T17:10:41.330Z,5.00
2023-05-23T17:13:28.914Z,4.65
2023-05-23T17:16:20.496Z,4.80
2023-05-23T17:19:08.563Z,4.82
2023-05-23T17:21:56.859Z,5.18
2023-05-23T17:24:43.804Z,4.90
2023-05-23T17:27:32.744Z,5.25
2023-05-23T17:30:20.817Z,4.43
2023-05-23T17:33:08.639Z,5.10
2023-05-23T17:35:56.190Z,4.30
2023-05-23T17:38:43.981Z,5.05
2023-05-23T17:41:31.347Z,4.90
2023-05-23T17:44:19.870Z,4.63
2023-05-23T17:47:07.510Z,4.53
2023-05-23T17:49:54.881Z,4.13
2023-05-23T17:52:42.610Z,4.35
2023-05-23T17:55:29.741Z,4.20
2023-05-23T17:58:16.589Z,5.10
2023-05-23T18:01:05.136Z,4.53
2023-05-23T18:03:53.682Z,4.55
2023-05-23T18:06:40.772Z,4.07
2023-05-23T18:09:27.643Z,4.60
2023-05-23T18:12:14.873Z,4.47
2023-05-23T18:15:01.794Z,4.75
2023-05-23T18:17:51.841Z,4.40
2023-05-23T18:20:38.764Z,4.70
2023-05-23T18:23:28.220Z,5.15
2023-05-23T18:26:15.289Z,4.28
2023-05-23T18:29:04.671Z,4.70
2023-05-23T18:31:51.611Z,4.57
2023-05-23T18:34:39.736Z,4.22
2023-05-23T18:37:27.110Z,4.55
2023-05-23T18:40:14.469Z,4.07
2023-05-23T18:43:01.492Z,3.63
2023-05-23T18:45:48.560Z,4.53
2023-05-23T18:48:35.994Z,3.92
2023-05-23T18:51:24.608Z,3.85
2023-05-23T18:54:12.138Z,3.40
2023-05-23T18:56:59.504Z,4.07
2023-05-23T18:59:47.311Z,4.15
2023-05-23T19:02:35.917Z,3.85
2023-05-23T19:05:24.483Z,3.90
2023-05-23T19:08:13.200Z,3.58
2023-05-23T19:11:01.034Z,3.38
2023-05-23T19:13:48.104Z,3.30
2023-05-23T19:16:36.297Z,3.53
2023-05-23T19:19:23.541Z,3.35
2023-05-23T19:22:13.608Z,3.03
2023-05-23T19:25:01.754Z,3.33
2023-05-23T19:27:48.799Z,3.33
2023-05-23T19:30:38.404Z,3.17
2023-05-23T19:33:25.658Z,3.13
2023-05-23T19:36:12.595Z,3.17
2023-05-23T19:38:59.464Z,3.05
2023-05-23T19:41:47.633Z,3.50
2023-05-23T19:44:34.524Z,2.90
2023-05-23T19:47:21.585Z,3.28
2023-05-23T19:50:10.771Z,3.00
2023-05-23T19:52:57.784Z,3.00
2023-05-23T19:55:44.830Z,2.90
2023-05-23T19:58:35.208Z,3.60
2023-05-23T20:01:22.520Z,3.30
2023-05-23T20:04:12.788Z,3.20
2023-05-23T20:07:00.442Z,3.67
2023-05-23T20:09:47.817Z,3.80
2023-05-23T20:12:34.894Z,3.38
2023-05-23T20:15:35.413Z,3.60
2023-05-23T20:18:26.021Z,3.47
2023-05-23T20:21:13.241Z,4.03
2023-05-23T20:24:00.152Z,3.58
2023-05-23T20:26:47.473Z,3.90
2023-05-23T20:29:35.083Z,3.35
2023-05-23T20:32:23.552Z,3.53
2023-05-23T20:35:10.736Z,3.38
2023-05-23T20:37:58.616Z,3.65
2023-05-23T20:40:46.330Z,3.97
2023-05-23T20:43:37.295Z,3.10
2023-05-23T20:46:27.745Z,3.80
2023-05-23T20:49:16.709Z,3.70
2023-05-23T20:52:03.567Z,3.37
2023-05-23T20:54:50.563Z,3.20
2023-05-23T20:57:37.716Z,4.10
2023-05-23T21:00:25.097Z,4.30
2023-05-23T21:03:12.210Z,4.53
2023-05-23T21:06:00.541Z,5.03
2023-05-23T21:08:47.502Z,4.60
2023-05-23T21:11:34.251Z,5.10
2023-05-23T21:14:21.438Z,4.80
2023-05-23T21:17:08.682Z,4.97
2023-05-23T21:19:55.796Z,5.97
2023-05-23T21:22:44.367Z,5.70
2023-05-23T21:25:31.367Z,5.90
2023-05-23T21:28:17.941Z,5.30
2023-05-23T21:31:05.313Z,5.23
2023-05-23T21:33:52.624Z,5.17
2023-05-23T21:36:39.847Z,5.93
2023-05-23T21:39:39.128Z,5.70
2023-05-23T21:42:31.134Z,5.77
2023-05-23T21:45:18.555Z,5.53
2023-05-23T21:48:05.611Z,5.93
2023-05-23T21:50:52.338Z,6.70
2023-05-23T21:53:39.200Z,6.60
2023-05-23T21:56:28.063Z,6.93
2023-05-23T21:59:14.800Z,7.57
2023-05-23T22:02:01.723Z,6.23
2023-05-23T22:04:49.180Z,6.10
2023-05-23T22:07:36.034Z,7.17
2023-05-23T22:10:22.841Z,6.80
2023-05-23T22:13:10.853Z,6.80
2023-05-23T22:15:57.803Z,7.20
2023-05-23T22:21:36.975Z,6.97
2023-05-23T22:24:24.022Z,7.30
2023-05-23T22:27:11.278Z,6.80
2023-05-23T22:30:00.079Z,7.23
2023-05-23T22:32:47.010Z,6.70
2023-05-23T22:35:33.771Z,7.30
2023-05-23T22:38:21.176Z,7.60
2023-05-23T22:41:08.132Z,7.53
2023-05-23T22:43:55.085Z,7.03
2023-05-23T22:46:43.482Z,7.33
2023-05-23T22:49:31.168Z,7.57
2023-05-23T22:52:18.358Z,7.57
2023-05-23T22:55:07.980Z,6.97
2023-05-23T22:57:55.575Z,6.77
2023-05-23T23:00:43.648Z,7.30
2023-05-23T23:03:32.161Z,7.87
2023-05-23T23:06:21.035Z,6.83
2023-05-23T23:09:10.387Z,7.63
2023-05-23T23:11:57.261Z,7.00
2023-05-23T23:14:43.876Z,7.80
2023-05-23T23:17:30.801Z,7.30
2023-05-23T23:20:19.837Z,8.50
2023-05-23T23:23:06.997Z,7.83
2023-05-23T23:25:53.912Z,7.43
2023-05-23T23:28:41.106Z,8.03
2023-05-23T23:31:27.968Z,7.60
2023-05-23T23:34:15.279Z,7.50
2023-05-23T23:37:03.880Z,6.87
2023-05-23T23:39:51.031Z,7.73
2023-05-23T23:42:38.030Z,7.93
2023-05-23T23:45:25.354Z,7.70
2023-05-23T23:48:13.941Z,6.73
2023-05-23T23:51:01.509Z,7.33
2023-05-23T23:53:52.397Z,7.03
2023-05-23T23:56:41.488Z,8.03
2023-05-23T23:59:28.645Z,6.67
